sensor_id;sensor_type;location;lat;lon;timestamp;P1;durP1;ratioP1;P2;durP2;ratioP2
15871;SDS011;8035;51.962;7.162;2023-05-19T00:00:35;6.57;;;5.00;;
15871;SDS011;8035;51.962;7.162;2023-05-19T00:03:03;9.27;;;4.90;;
15871;SDS011;8035;51.962;7.162;2023-05-19T00:05:29;6.07;;;4.83;;
15871;SDS011;8035;51.962;7.162;2023-05-19T00:07:58;8.17;;;5.53;;
15871;SDS011;8035;51.962;7.162;2023-05-19T00:10:27;7.70;;;4.63;;
15871;SDS011;8035;51.962;7.162;2023-05-19T00:12:55;7.60;;;4.93;;
15871;SDS011;8035;51.962;7.162;2023-05-19T00:15:22;7.67;;;4.97;;
15871;SDS011;8035;51.962;7.162;2023-05-19T00:17:48;7.27;;;4.90;;
15871;SDS011;8035;51.962;7.162;2023-05-19T00:20:13;9.10;;;5.57;;
15871;SDS011;8035;51.962;7.162;2023-05-19T00:22:39;9.53;;;4.87;;
15871;SDS011;8035;51.962;7.162;2023-05-19T00:25:08;10.33;;;5.30;;
15871;SDS011;8035;51.962;7.162;2023-05-19T00:27:34;7.37;;;4.93;;
15871;SDS011;8035;51.962;7.162;2023-05-19T00:29:59;5.97;;;4.60;;
15871;SDS011;8035;51.962;7.162;2023-05-19T00:32:25;9.30;;;5.70;;
15871;SDS011;8035;51.962;7.162;2023-05-19T00:34:50;7.13;;;4.77;;
15871;SDS011;8035;51.962;7.162;2023-05-19T00:37:16;8.70;;;5.07;;
15871;SDS011;8035;51.962;7.162;2023-05-19T00:39:42;10.77;;;5.50;;
15871;SDS011;8035;51.962;7.162;2023-05-19T00:42:07;8.27;;;4.80;;
15871;SDS011;8035;51.962;7.162;2023-05-19T00:44:33;10.57;;;5.33;;
15871;SDS011;8035;51.962;7.162;2023-05-19T00:47:03;6.70;;;4.57;;
15871;SDS011;8035;51.962;7.162;2023-05-19T00:49:29;6.83;;;4.63;;
15871;SDS011;8035;51.962;7.162;2023-05-19T00:51:55;7.03;;;4.93;;
15871;SDS011;8035;51.962;7.162;2023-05-19T00:54:22;8.17;;;4.90;;
15871;SDS011;8035;51.962;7.162;2023-05-19T00:56:48;9.33;;;5.23;;
15871;SDS011;8035;51.962;7.162;2023-05-19T00:59:14;6.60;;;4.90;;
15871;SDS011;8035;51.962;7.162;2023-05-19T01:01:40;8.17;;;5.00;;
15871;SDS011;8035;51.962;7.162;2023-05-19T01:04:06;6.47;;;4.87;;
15871;SDS011;8035;51.962;7.162;2023-05-19T01:06:34;9.03;;;5.60;;
15871;SDS011;8035;51.962;7.162;2023-05-19T01:09:02;8.67;;;4.60;;
15871;SDS011;8035;51.962;7.162;2023-05-19T01:11:28;8.13;;;5.33;;
15871;SDS011;8035;51.962;7.162;2023-05-19T01:13:53;6.57;;;5.00;;
15871;SDS011;8035;51.962;7.162;2023-05-19T01:30:21;9.77;;;6.13;;
15871;SDS011;8035;51.962;7.162;2023-05-19T01:32:52;9.67;;;5.90;;
15871;SDS011;8035;51.962;7.162;2023-05-19T01:35:21;7.20;;;5.53;;
15871;SDS011;8035;51.962;7.162;2023-05-19T01:37:49;8.73;;;5.97;;
15871;SDS011;8035;51.962;7.162;2023-05-19T01:40:18;10.43;;;6.47;;
15871;SDS011;8035;51.962;7.162;2023-05-19T01:42:46;6.57;;;5.50;;
15871;SDS011;8035;51.962;7.162;2023-05-19T01:45:14;10.87;;;6.07;;
15871;SDS011;8035;51.962;7.162;2023-05-19T01:47:42;10.10;;;5.90;;
15871;SDS011;8035;51.962;7.162;2023-05-19T01:50:10;11.23;;;6.00;;
15871;SDS011;8035;51.962;7.162;2023-05-19T01:52:36;8.47;;;5.70;;
15871;SDS011;8035;51.962;7.162;2023-05-19T01:55:01;8.40;;;5.83;;
15871;SDS011;8035;51.962;7.162;2023-05-19T02:09:11;8.53;;;5.73;;
15871;SDS011;8035;51.962;7.162;2023-05-19T02:12:00;9.60;;;5.70;;
15871;SDS011;8035;51.962;7.162;2023-05-19T02:14:40;10.33;;;6.50;;
15871;SDS011;8035;51.962;7.162;2023-05-19T02:17:19;9.27;;;5.80;;
15871;SDS011;8035;51.962;7.162;2023-05-19T02:19:45;8.90;;;6.00;;
15871;SDS011;8035;51.962;7.162;2023-05-19T02:22:11;12.13;;;6.07;;
15871;SDS011;8035;51.962;7.162;2023-05-19T02:24:37;10.87;;;6.47;;
15871;SDS011;8035;51.962;7.162;2023-05-19T02:27:03;10.47;;;5.97;;
15871;SDS011;8035;51.962;7.162;2023-05-19T02:29:29;7.40;;;5.93;;
15871;SDS011;8035;51.962;7.162;2023-05-19T02:31:54;7.10;;;6.40;;
15871;SDS011;8035;51.962;7.162;2023-05-19T02:34:20;7.83;;;5.30;;
15871;SDS011;8035;51.962;7.162;2023-05-19T02:36:46;10.00;;;6.13;;
15871;SDS011;8035;51.962;7.162;2023-05-19T02:39:13;10.23;;;6.47;;
15871;SDS011;8035;51.962;7.162;2023-05-19T02:41:39;9.37;;;6.13;;
15871;SDS011;8035;51.962;7.162;2023-05-19T02:44:05;11.87;;;7.33;;
15871;SDS011;8035;51.962;7.162;2023-05-19T02:46:31;10.57;;;6.30;;
15871;SDS011;8035;51.962;7.162;2023-05-19T02:48:57;8.37;;;6.20;;
15871;SDS011;8035;51.962;7.162;2023-05-19T02:51:23;10.67;;;5.53;;
15871;SDS011;8035;51.962;7.162;2023-05-19T02:53:48;10.80;;;6.23;;
15871;SDS011;8035;51.962;7.162;2023-05-19T02:56:14;7.57;;;6.10;;
15871;SDS011;8035;51.962;7.162;2023-05-19T02:58:40;7.43;;;5.87;;
15871;SDS011;8035;51.962;7.162;2023-05-19T03:01:08;11.73;;;6.43;;
15871;SDS011;8035;51.962;7.162;2023-05-19T03:03:33;7.77;;;6.17;;
15871;SDS011;8035;51.962;7.162;2023-05-19T03:05:59;7.03;;;6.03;;
15871;SDS011;8035;51.962;7.162;2023-05-19T03:08:25;8.87;;;6.07;;
15871;SDS011;8035;51.962;7.162;2023-05-19T03:10:52;9.20;;;5.90;;
15871;SDS011;8035;51.962;7.162;2023-05-19T03:13:17;8.73;;;6.20;;
15871;SDS011;8035;51.962;7.162;2023-05-19T03:15:43;9.87;;;6.80;;
15871;SDS011;8035;51.962;7.162;2023-05-19T03:18:09;10.87;;;6.50;;
15871;SDS011;8035;51.962;7.162;2023-05-19T03:20:35;8.97;;;5.70;;
15871;SDS011;8035;51.962;7.162;2023-05-19T03:23:02;12.80;;;6.63;;
15871;SDS011;8035;51.962;7.162;2023-05-19T03:25:28;10.43;;;6.63;;
15871;SDS011;8035;51.962;7.162;2023-05-19T03:27:54;9.60;;;6.30;;
15871;SDS011;8035;51.962;7.162;2023-05-19T03:30:19;6.63;;;6.03;;
15871;SDS011;8035;51.962;7.162;2023-05-19T03:32:46;11.37;;;6.43;;
15871;SDS011;8035;51.962;7.162;2023-05-19T03:35:11;9.97;;;6.20;;
15871;SDS011;8035;51.962;7.162;2023-05-19T03:37:37;8.43;;;6.47;;
15871;SDS011;8035;51.962;7.162;2023-05-19T03:40:02;8.03;;;6.20;;
15871;SDS011;8035;51.962;7.162;2023-05-19T03:42:29;10.67;;;6.57;;
15871;SDS011;8035;51.962;7.162;2023-05-19T03:44:55;8.40;;;6.40;;
15871;SDS011;8035;51.962;7.162;2023-05-19T03:47:21;8.50;;;5.93;;
15871;SDS011;8035;51.962;7.162;2023-05-19T03:49:46;8.80;;;6.30;;
15871;SDS011;8035;51.962;7.162;2023-05-19T03:52:12;7.77;;;6.27;;
15871;SDS011;8035;51.962;7.162;2023-05-19T03:54:37;13.57;;;6.57;;
15871;SDS011;8035;51.962;7.162;2023-05-19T03:57:03;8.03;;;6.03;;
15871;SDS011;8035;51.962;7.162;2023-05-19T03:59:29;7.77;;;6.60;;
15871;SDS011;8035;51.962;7.162;2023-05-19T04:01:55;12.40;;;6.90;;
15871;SDS011;8035;51.962;7.162;2023-05-19T04:04:21;11.40;;;6.07;;
15871;SDS011;8035;51.962;7.162;2023-05-19T04:06:47;9.80;;;6.43;;
15871;SDS011;8035;51.962;7.162;2023-05-19T04:09:13;8.10;;;6.33;;
15871;SDS011;8035;51.962;7.162;2023-05-19T04:11:40;10.27;;;5.97;;
15871;SDS011;8035;51.962;7.162;2023-05-19T04:14:06;7.87;;;6.17;;
15871;SDS011;8035;51.962;7.162;2023-05-19T04:16:32;11.67;;;6.43;;
15871;SDS011;8035;51.962;7.162;2023-05-19T04:18:58;9.43;;;6.73;;
15871;SDS011;8035;51.962;7.162;2023-05-19T04:21:24;8.60;;;5.90;;
15871;SDS011;8035;51.962;7.162;2023-05-19T04:23:50;7.00;;;5.67;;
15871;SDS011;8035;51.962;7.162;2023-05-19T04:26:15;7.57;;;5.87;;
15871;SDS011;8035;51.962;7.162;2023-05-19T04:28:43;13.70;;;6.57;;
15871;SDS011;8035;51.962;7.162;2023-05-19T04:31:09;6.57;;;5.40;;
15871;SDS011;8035;51.962;7.162;2023-05-19T04:33:36;9.03;;;5.47;;
15871;SDS011;8035;51.962;7.162;2023-05-19T04:36:02;8.50;;;5.83;;
15871;SDS011;8035;51.962;7.162;2023-05-19T04:38:32;9.07;;;5.67;;
15871;SDS011;8035;51.962;7.162;2023-05-19T04:41:01;9.07;;;5.93;;
15871;SDS011;8035;51.962;7.162;2023-05-19T04:43:28;9.63;;;5.87;;
15871;SDS011;8035;51.962;7.162;2023-05-19T04:45:53;10.07;;;5.17;;
15871;SDS011;8035;51.962;7.162;2023-05-19T04:48:19;7.87;;;5.80;;
15871;SDS011;8035;51.962;7.162;2023-05-19T04:50:48;10.23;;;5.80;;
15871;SDS011;8035;51.962;7.162;2023-05-19T04:53:15;8.13;;;5.70;;
15871;SDS011;8035;51.962;7.162;2023-05-19T04:55:41;6.47;;;5.23;;
15871;SDS011;8035;51.962;7.162;2023-05-19T04:58:08;7.60;;;5.47;;
15871;SDS011;8035;51.962;7.162;2023-05-19T05:00:33;8.27;;;5.53;;
15871;SDS011;8035;51.962;7.162;2023-05-19T05:02:59;9.03;;;5.60;;
15871;SDS011;8035;51.962;7.162;2023-05-19T05:05:28;7.90;;;4.97;;
15871;SDS011;8035;51.962;7.162;2023-05-19T05:07:54;8.23;;;5.50;;
15871;SDS011;8035;51.962;7.162;2023-05-19T05:10:21;10.03;;;5.87;;
15871;SDS011;8035;51.962;7.162;2023-05-19T05:12:47;6.70;;;5.17;;
15871;SDS011;8035;51.962;7.162;2023-05-19T05:15:13;8.10;;;5.23;;
15871;SDS011;8035;51.962;7.162;2023-05-19T05:17:39;9.23;;;5.50;;
15871;SDS011;8035;51.962;7.162;2023-05-19T05:20:05;8.13;;;5.30;;
15871;SDS011;8035;51.962;7.162;2023-05-19T05:22:32;8.13;;;5.43;;
15871;SDS011;8035;51.962;7.162;2023-05-19T05:24:58;8.53;;;5.50;;
15871;SDS011;8035;51.962;7.162;2023-05-19T05:27:24;6.93;;;5.40;;
15871;SDS011;8035;51.962;7.162;2023-05-19T05:29:51;8.17;;;5.33;;
15871;SDS011;8035;51.962;7.162;2023-05-19T05:32:17;11.37;;;5.43;;
15871;SDS011;8035;51.962;7.162;2023-05-19T05:34:42;11.00;;;5.60;;
15871;SDS011;8035;51.962;7.162;2023-05-19T05:37:08;10.30;;;5.37;;
15871;SDS011;8035;51.962;7.162;2023-05-19T05:39:33;11.53;;;5.60;;
15871;SDS011;8035;51.962;7.162;2023-05-19T05:41:59;11.20;;;5.37;;
15871;SDS011;8035;51.962;7.162;2023-05-19T05:44:25;5.77;;;4.90;;
15871;SDS011;8035;51.962;7.162;2023-05-19T05:46:50;9.47;;;5.23;;
15871;SDS011;8035;51.962;7.162;2023-05-19T05:49:16;8.37;;;4.87;;
15871;SDS011;8035;51.962;7.162;2023-05-19T05:51:42;7.73;;;4.80;;
15871;SDS011;8035;51.962;7.162;2023-05-19T05:54:08;8.77;;;5.40;;
15871;SDS011;8035;51.962;7.162;2023-05-19T05:56:36;7.40;;;4.70;;
15871;SDS011;8035;51.962;7.162;2023-05-19T05:59:02;7.50;;;5.30;;
15871;SDS011;8035;51.962;7.162;2023-05-19T06:01:28;8.27;;;4.83;;
15871;SDS011;8035;51.962;7.162;2023-05-19T06:03:58;5.10;;;4.07;;
15871;SDS011;8035;51.962;7.162;2023-05-19T06:06:24;7.23;;;4.90;;
15871;SDS011;8035;51.962;7.162;2023-05-19T06:08:49;6.50;;;4.47;;
15871;SDS011;8035;51.962;7.162;2023-05-19T06:11:15;9.50;;;4.40;;
15871;SDS011;8035;51.962;7.162;2023-05-19T06:13:40;7.97;;;4.50;;
15871;SDS011;8035;51.962;7.162;2023-05-19T06:16:06;6.77;;;4.03;;
15871;SDS011;8035;51.962;7.162;2023-05-19T06:18:31;6.30;;;4.20;;
15871;SDS011;8035;51.962;7.162;2023-05-19T06:20:57;7.50;;;3.90;;
15871;SDS011;8035;51.962;7.162;2023-05-19T06:23:23;7.57;;;3.97;;
15871;SDS011;8035;51.962;7.162;2023-05-19T06:25:50;5.57;;;3.63;;
15871;SDS011;8035;51.962;7.162;2023-05-19T06:28:16;7.83;;;3.70;;
15871;SDS011;8035;51.962;7.162;2023-05-19T06:30:42;11.10;;;3.93;;
15871;SDS011;8035;51.962;7.162;2023-05-19T06:33:07;6.93;;;3.43;;
15871;SDS011;8035;51.962;7.162;2023-05-19T06:35:33;9.27;;;3.43;;
15871;SDS011;8035;51.962;7.162;2023-05-19T06:37:58;5.20;;;2.93;;
15871;SDS011;8035;51.962;7.162;2023-05-19T06:40:24;9.70;;;3.47;;
15871;SDS011;8035;51.962;7.162;2023-05-19T06:42:49;7.10;;;3.17;;
15871;SDS011;8035;51.962;7.162;2023-05-19T06:45:15;5.47;;;3.00;;
15871;SDS011;8035;51.962;7.162;2023-05-19T06:47:42;5.30;;;3.00;;
15871;SDS011;8035;51.962;7.162;2023-05-19T06:50:08;7.00;;;3.40;;
15871;SDS011;8035;51.962;7.162;2023-05-19T06:52:34;7.97;;;3.17;;
15871;SDS011;8035;51.962;7.162;2023-05-19T06:55:00;7.53;;;3.23;;
15871;SDS011;8035;51.962;7.162;2023-05-19T06:57:26;5.80;;;3.10;;
15871;SDS011;8035;51.962;7.162;2023-05-19T06:59:51;6.27;;;2.80;;
15871;SDS011;8035;51.962;7.162;2023-05-19T07:02:17;5.60;;;2.43;;
15871;SDS011;8035;51.962;7.162;2023-05-19T07:04:43;5.00;;;3.13;;
15871;SDS011;8035;51.962;7.162;2023-05-19T07:07:09;4.93;;;2.90;;
15871;SDS011;8035;51.962;7.162;2023-05-19T07:09:34;5.53;;;2.50;;
15871;SDS011;8035;51.962;7.162;2023-05-19T07:12:00;4.60;;;2.67;;
15871;SDS011;8035;51.962;7.162;2023-05-19T07:14:26;5.50;;;2.50;;
15871;SDS011;8035;51.962;7.162;2023-05-19T07:16:51;6.63;;;2.50;;
15871;SDS011;8035;51.962;7.162;2023-05-19T07:19:17;6.97;;;2.87;;
15871;SDS011;8035;51.962;7.162;2023-05-19T07:21:44;4.77;;;2.50;;
15871;SDS011;8035;51.962;7.162;2023-05-19T07:24:10;3.97;;;2.53;;
15871;SDS011;8035;51.962;7.162;2023-05-19T07:26:36;6.17;;;3.10;;
15871;SDS011;8035;51.962;7.162;2023-05-19T07:29:02;5.83;;;2.83;;
15871;SDS011;8035;51.962;7.162;2023-05-19T07:31:27;7.70;;;3.07;;
15871;SDS011;8035;51.962;7.162;2023-05-19T07:33:53;6.10;;;2.80;;
15871;SDS011;8035;51.962;7.162;2023-05-19T07:36:18;4.13;;;2.67;;
15871;SDS011;8035;51.962;7.162;2023-05-19T07:38:44;7.10;;;3.30;;
15871;SDS011;8035;51.962;7.162;2023-05-19T07:41:11;6.97;;;2.83;;
15871;SDS011;8035;51.962;7.162;2023-05-19T07:43:36;6.87;;;2.93;;
15871;SDS011;8035;51.962;7.162;2023-05-19T07:46:02;5.97;;;3.10;;
15871;SDS011;8035;51.962;7.162;2023-05-19T07:48:28;6.17;;;2.87;;
15871;SDS011;8035;51.962;7.162;2023-05-19T07:50:54;5.10;;;3.07;;
15871;SDS011;8035;51.962;7.162;2023-05-19T07:53:20;8.37;;;3.30;;
15871;SDS011;8035;51.962;7.162;2023-05-19T07:55:46;5.37;;;2.73;;
15871;SDS011;8035;51.962;7.162;2023-05-19T07:58:12;5.87;;;2.97;;
15871;SDS011;8035;51.962;7.162;2023-05-19T08:00:38;7.10;;;3.40;;
15871;SDS011;8035;51.962;7.162;2023-05-19T08:03:07;7.03;;;3.40;;
15871;SDS011;8035;51.962;7.162;2023-05-19T08:05:33;5.93;;;3.00;;
15871;SDS011;8035;51.962;7.162;2023-05-19T08:07:59;6.57;;;2.90;;
15871;SDS011;8035;51.962;7.162;2023-05-19T08:10:25;6.83;;;3.20;;
15871;SDS011;8035;51.962;7.162;2023-05-19T08:12:51;5.97;;;3.30;;
15871;SDS011;8035;51.962;7.162;2023-05-19T08:15:17;6.67;;;2.87;;
15871;SDS011;8035;51.962;7.162;2023-05-19T08:17:43;5.47;;;3.23;;
15871;SDS011;8035;51.962;7.162;2023-05-19T08:20:09;9.53;;;3.20;;
15871;SDS011;8035;51.962;7.162;2023-05-19T08:22:36;5.20;;;2.90;;
15871;SDS011;8035;51.962;7.162;2023-05-19T08:25:02;7.83;;;3.03;;
15871;SDS011;8035;51.962;7.162;2023-05-19T08:27:30;6.07;;;2.80;;
15871;SDS011;8035;51.962;7.162;2023-05-19T08:29:56;5.37;;;2.63;;
15871;SDS011;8035;51.962;7.162;2023-05-19T08:32:22;6.43;;;3.17;;
15871;SDS011;8035;51.962;7.162;2023-05-19T08:34:48;5.67;;;2.70;;
15871;SDS011;8035;51.962;7.162;2023-05-19T08:37:13;8.70;;;2.87;;
15871;SDS011;8035;51.962;7.162;2023-05-19T08:39:40;5.97;;;2.83;;
15871;SDS011;8035;51.962;7.162;2023-05-19T08:42:05;5.37;;;2.27;;
15871;SDS011;8035;51.962;7.162;2023-05-19T08:44:32;4.60;;;2.70;;
15871;SDS011;8035;51.962;7.162;2023-05-19T08:47:02;3.97;;;2.33;;
15871;SDS011;8035;51.962;7.162;2023-05-19T08:49:37;7.33;;;2.60;;
15871;SDS011;8035;51.962;7.162;2023-05-19T08:57:34;6.27;;;2.30;;
15871;SDS011;8035;51.962;7.162;2023-05-19T09:00:01;6.63;;;2.90;;
15871;SDS011;8035;51.962;7.162;2023-05-19T09:02:33;8.60;;;3.30;;
15871;SDS011;8035;51.962;7.162;2023-05-19T09:05:00;6.73;;;3.40;;
15871;SDS011;8035;51.962;7.162;2023-05-19T09:07:27;6.17;;;3.00;;
15871;SDS011;8035;51.962;7.162;2023-05-19T09:09:55;7.23;;;2.70;;
15871;SDS011;8035;51.962;7.162;2023-05-19T09:12:21;5.70;;;2.80;;
15871;SDS011;8035;51.962;7.162;2023-05-19T09:14:47;3.40;;;2.30;;
15871;SDS011;8035;51.962;7.162;2023-05-19T09:17:12;4.30;;;2.77;;
15871;SDS011;8035;51.962;7.162;2023-05-19T09:19:43;10.77;;;2.77;;
15871;SDS011;8035;51.962;7.162;2023-05-19T09:22:12;4.57;;;2.60;;
15871;SDS011;8035;51.962;7.162;2023-05-19T09:24:40;8.97;;;2.90;;
15871;SDS011;8035;51.962;7.162;2023-05-19T09:27:06;7.03;;;2.70;;
15871;SDS011;8035;51.962;7.162;2023-05-19T09:29:31;6.63;;;2.73;;
15871;SDS011;8035;51.962;7.162;2023-05-19T09:31:57;4.40;;;2.17;;
15871;SDS011;8035;51.962;7.162;2023-05-19T09:34:28;4.63;;;2.27;;
15871;SDS011;8035;51.962;7.162;2023-05-19T09:36:54;9.03;;;2.47;;
15871;SDS011;8035;51.962;7.162;2023-05-19T09:39:20;5.53;;;2.67;;
15871;SDS011;8035;51.962;7.162;2023-05-19T09:41:50;8.13;;;2.40;;
15871;SDS011;8035;51.962;7.162;2023-05-19T09:44:24;4.27;;;2.20;;
15871;SDS011;8035;51.962;7.162;2023-05-19T09:46:54;6.70;;;2.67;;
15871;SDS011;8035;51.962;7.162;2023-05-19T09:49:21;5.27;;;2.10;;
15871;SDS011;8035;51.962;7.162;2023-05-19T09:51:57;3.40;;;2.20;;
15871;SDS011;8035;51.962;7.162;2023-05-19T09:54:26;6.40;;;2.77;;
15871;SDS011;8035;51.962;7.162;2023-05-19T09:56:56;5.47;;;2.30;;
15871;SDS011;8035;51.962;7.162;2023-05-19T09:59:23;6.37;;;2.40;;
15871;SDS011;8035;51.962;7.162;2023-05-19T10:01:49;4.20;;;2.53;;
15871;SDS011;8035;51.962;7.162;2023-05-19T10:04:19;5.93;;;2.10;;
15871;SDS011;8035;51.962;7.162;2023-05-19T10:06:46;7.47;;;2.63;;
15871;SDS011;8035;51.962;7.162;2023-05-19T10:09:17;6.60;;;2.50;;
15871;SDS011;8035;51.962;7.162;2023-05-19T10:11:52;16.80;;;4.40;;
15871;SDS011;8035;51.962;7.162;2023-05-19T10:14:22;6.17;;;2.47;;
15871;SDS011;8035;51.962;7.162;2023-05-19T10:16:55;8.53;;;3.53;;
15871;SDS011;8035;51.962;7.162;2023-05-19T10:19:23;6.17;;;2.80;;
15871;SDS011;8035;51.962;7.162;2023-05-19T10:21:50;8.93;;;2.80;;
15871;SDS011;8035;51.962;7.162;2023-05-19T10:24:16;4.37;;;2.07;;
15871;SDS011;8035;51.962;7.162;2023-05-19T10:26:52;6.23;;;2.07;;
15871;SDS011;8035;51.962;7.162;2023-05-19T10:29:24;4.30;;;2.20;;
15871;SDS011;8035;51.962;7.162;2023-05-19T10:31:53;11.63;;;9.83;;
15871;SDS011;8035;51.962;7.162;2023-05-19T10:37:16;5.10;;;2.20;;
15871;SDS011;8035;51.962;7.162;2023-05-19T10:40:26;8.50;;;2.40;;
15871;SDS011;8035;51.962;7.162;2023-05-19T10:45:18;5.00;;;2.57;;
15871;SDS011;8035;51.962;7.162;2023-05-19T10:47:49;4.57;;;2.27;;
15871;SDS011;8035;51.962;7.162;2023-05-19T10:50:15;5.03;;;2.30;;
15871;SDS011;8035;51.962;7.162;2023-05-19T10:52:41;6.60;;;2.20;;
15871;SDS011;8035;51.962;7.162;2023-05-19T10:55:09;5.97;;;2.50;;
15871;SDS011;8035;51.962;7.162;2023-05-19T10:57:52;6.50;;;2.17;;
15871;SDS011;8035;51.962;7.162;2023-05-19T11:00:28;4.57;;;2.23;;
15871;SDS011;8035;51.962;7.162;2023-05-19T11:03:14;6.63;;;2.57;;
15871;SDS011;8035;51.962;7.162;2023-05-19T11:05:42;3.93;;;2.17;;
15871;SDS011;8035;51.962;7.162;2023-05-19T11:08:10;6.20;;;1.90;;
15871;SDS011;8035;51.962;7.162;2023-05-19T11:10:36;7.47;;;2.53;;
15871;SDS011;8035;51.962;7.162;2023-05-19T11:13:03;7.87;;;2.40;;
15871;SDS011;8035;51.962;7.162;2023-05-19T11:15:33;9.77;;;2.73;;
15871;SDS011;8035;51.962;7.162;2023-05-19T11:18:01;8.00;;;2.60;;
15871;SDS011;8035;51.962;7.162;2023-05-19T11:20:29;3.97;;;2.20;;
15871;SDS011;8035;51.962;7.162;2023-05-19T11:23:08;6.40;;;2.33;;
15871;SDS011;8035;51.962;7.162;2023-05-19T11:28:15;7.73;;;2.20;;
15871;SDS011;8035;51.962;7.162;2023-05-19T11:30:43;6.90;;;2.50;;
15871;SDS011;8035;51.962;7.162;2023-05-19T11:33:11;6.20;;;2.10;;
15871;SDS011;8035;51.962;7.162;2023-05-19T11:35:37;7.23;;;2.13;;
15871;SDS011;8035;51.962;7.162;2023-05-19T11:38:04;4.20;;;2.33;;
15871;SDS011;8035;51.962;7.162;2023-05-19T11:40:30;2.97;;;1.87;;
15871;SDS011;8035;51.962;7.162;2023-05-19T11:42:56;6.17;;;2.30;;
15871;SDS011;8035;51.962;7.162;2023-05-19T11:45:23;3.33;;;2.07;;
15871;SDS011;8035;51.962;7.162;2023-05-19T11:47:50;5.90;;;2.17;;
15871;SDS011;8035;51.962;7.162;2023-05-19T11:50:16;3.97;;;1.93;;
15871;SDS011;8035;51.962;7.162;2023-05-19T11:52:45;3.60;;;2.00;;
15871;SDS011;8035;51.962;7.162;2023-05-19T11:55:18;4.07;;;2.00;;
15871;SDS011;8035;51.962;7.162;2023-05-19T11:58:01;6.80;;;2.20;;
15871;SDS011;8035;51.962;7.162;2023-05-19T12:00:28;2.77;;;1.90;;
15871;SDS011;8035;51.962;7.162;2023-05-19T12:02:58;6.43;;;2.30;;
15871;SDS011;8035;51.962;7.162;2023-05-19T12:05:25;2.80;;;1.87;;
15871;SDS011;8035;51.962;7.162;2023-05-19T12:07:51;3.63;;;2.10;;
15871;SDS011;8035;51.962;7.162;2023-05-19T12:10:21;3.80;;;2.03;;
15871;SDS011;8035;51.962;7.162;2023-05-19T12:12:49;5.70;;;2.00;;
15871;SDS011;8035;51.962;7.162;2023-05-19T12:15:17;3.70;;;2.37;;
15871;SDS011;8035;51.962;7.162;2023-05-19T12:18:04;5.40;;;2.20;;
15871;SDS011;8035;51.962;7.162;2023-05-19T12:20:31;4.80;;;2.23;;
15871;SDS011;8035;51.962;7.162;2023-05-19T12:22:59;6.07;;;2.10;;
15871;SDS011;8035;51.962;7.162;2023-05-19T12:25:25;4.07;;;2.33;;
15871;SDS011;8035;51.962;7.162;2023-05-19T12:27:55;4.17;;;2.00;;
15871;SDS011;8035;51.962;7.162;2023-05-19T12:30:26;5.50;;;2.47;;
15871;SDS011;8035;51.962;7.162;2023-05-19T12:32:53;5.40;;;2.30;;
15871;SDS011;8035;51.962;7.162;2023-05-19T12:35:24;5.70;;;2.20;;
15871;SDS011;8035;51.962;7.162;2023-05-19T12:37:50;3.37;;;2.33;;
15871;SDS011;8035;51.962;7.162;2023-05-19T12:40:16;4.87;;;2.20;;
15871;SDS011;8035;51.962;7.162;2023-05-19T12:42:44;4.40;;;2.40;;
15871;SDS011;8035;51.962;7.162;2023-05-19T12:45:10;5.80;;;2.80;;
15871;SDS011;8035;51.962;7.162;2023-05-19T12:47:36;4.20;;;2.00;;
15871;SDS011;8035;51.962;7.162;2023-05-19T12:50:03;8.00;;;3.10;;
15871;SDS011;8035;51.962;7.162;2023-05-19T12:52:31;6.20;;;3.57;;
15871;SDS011;8035;51.962;7.162;2023-05-19T12:55:00;6.00;;;2.50;;
15871;SDS011;8035;51.962;7.162;2023-05-19T12:57:26;4.40;;;2.40;;
15871;SDS011;8035;51.962;7.162;2023-05-19T12:59:58;4.90;;;2.20;;
15871;SDS011;8035;51.962;7.162;2023-05-19T13:02:31;3.67;;;2.40;;
15871;SDS011;8035;51.962;7.162;2023-05-19T13:04:58;4.07;;;2.20;;
15871;SDS011;8035;51.962;7.162;2023-05-19T13:07:24;3.23;;;1.97;;
15871;SDS011;8035;51.962;7.162;2023-05-19T13:09:49;4.60;;;2.30;;
15871;SDS011;8035;51.962;7.162;2023-05-19T13:12:15;5.03;;;2.30;;
15871;SDS011;8035;51.962;7.162;2023-05-19T13:14:40;4.87;;;2.83;;
15871;SDS011;8035;51.962;7.162;2023-05-19T13:17:07;5.50;;;2.80;;
15871;SDS011;8035;51.962;7.162;2023-05-19T13:19:33;4.80;;;2.40;;
15871;SDS011;8035;51.962;7.162;2023-05-19T13:21:58;4.50;;;2.10;;
15871;SDS011;8035;51.962;7.162;2023-05-19T13:24:24;2.87;;;2.27;;
15871;SDS011;8035;51.962;7.162;2023-05-19T13:26:50;3.67;;;2.13;;
15871;SDS011;8035;51.962;7.162;2023-05-19T13:29:15;5.20;;;2.28;;
15871;SDS011;8035;51.962;7.162;2023-05-19T13:31:41;7.50;;;2.70;;
15871;SDS011;8035;51.962;7.162;2023-05-19T13:34:06;4.55;;;2.10;;
15871;SDS011;8035;51.962;7.162;2023-05-19T13:36:32;4.97;;;2.60;;
15871;SDS011;8035;51.962;7.162;2023-05-19T13:38:58;3.53;;;2.72;;
15871;SDS011;8035;51.962;7.162;2023-05-19T13:41:25;6.10;;;2.53;;
15871;SDS011;8035;51.962;7.162;2023-05-19T13:43:53;5.40;;;2.67;;
15871;SDS011;8035;51.962;7.162;2023-05-19T13:46:22;3.63;;;2.50;;
15871;SDS011;8035;51.962;7.162;2023-05-19T13:48:47;4.67;;;2.90;;
15871;SDS011;8035;51.962;7.162;2023-05-19T13:51:13;4.77;;;2.60;;
15871;SDS011;8035;51.962;7.162;2023-05-19T13:53:39;4.80;;;2.80;;
15871;SDS011;8035;51.962;7.162;2023-05-19T13:56:05;4.70;;;2.50;;
15871;SDS011;8035;51.962;7.162;2023-05-19T13:58:30;3.70;;;2.20;;
15871;SDS011;8035;51.962;7.162;2023-05-19T14:00:56;2.97;;;2.30;;
15871;SDS011;8035;51.962;7.162;2023-05-19T14:03:23;6.17;;;2.10;;
15871;SDS011;8035;51.962;7.162;2023-05-19T14:05:50;4.80;;;2.47;;
15871;SDS011;8035;51.962;7.162;2023-05-19T14:08:16;5.67;;;2.40;;
15871;SDS011;8035;51.962;7.162;2023-05-19T14:10:42;3.37;;;2.23;;
15871;SDS011;8035;51.962;7.162;2023-05-19T14:13:10;4.27;;;2.13;;
15871;SDS011;8035;51.962;7.162;2023-05-19T14:15:36;4.63;;;2.00;;
15871;SDS011;8035;51.962;7.162;2023-05-19T14:18:02;9.27;;;2.50;;
15871;SDS011;8035;51.962;7.162;2023-05-19T14:20:28;5.07;;;2.03;;
15871;SDS011;8035;51.962;7.162;2023-05-19T14:22:53;4.93;;;2.20;;
15871;SDS011;8035;51.962;7.162;2023-05-19T14:25:19;4.17;;;2.20;;
15871;SDS011;8035;51.962;7.162;2023-05-19T14:27:45;4.40;;;2.40;;
15871;SDS011;8035;51.962;7.162;2023-05-19T14:30:11;4.73;;;2.10;;
15871;SDS011;8035;51.962;7.162;2023-05-19T14:32:36;3.87;;;2.43;;
15871;SDS011;8035;51.962;7.162;2023-05-19T14:35:02;7.60;;;2.77;;
15871;SDS011;8035;51.962;7.162;2023-05-19T14:37:28;3.73;;;2.57;;
15871;SDS011;8035;51.962;7.162;2023-05-19T14:39:56;4.23;;;2.17;;
15871;SDS011;8035;51.962;7.162;2023-05-19T14:42:22;3.97;;;2.20;;
15871;SDS011;8035;51.962;7.162;2023-05-19T14:44:47;3.10;;;2.30;;
15871;SDS011;8035;51.962;7.162;2023-05-19T14:47:13;6.07;;;2.63;;
15871;SDS011;8035;51.962;7.162;2023-05-19T14:49:39;3.83;;;2.23;;
15871;SDS011;8035;51.962;7.162;2023-05-19T14:52:04;5.77;;;2.37;;
15871;SDS011;8035;51.962;7.162;2023-05-19T14:54:30;3.23;;;2.30;;
15871;SDS011;8035;51.962;7.162;2023-05-19T14:56:56;3.77;;;2.23;;
15871;SDS011;8035;51.962;7.162;2023-05-19T14:59:21;4.83;;;2.57;;
15871;SDS011;8035;51.962;7.162;2023-05-19T15:01:47;4.33;;;2.30;;
15871;SDS011;8035;51.962;7.162;2023-05-19T15:04:13;5.37;;;2.30;;
15871;SDS011;8035;51.962;7.162;2023-05-19T15:06:38;7.90;;;2.40;;
15871;SDS011;8035;51.962;7.162;2023-05-19T15:09:04;6.50;;;2.47;;
15871;SDS011;8035;51.962;7.162;2023-05-19T15:11:29;3.50;;;2.30;;
15871;SDS011;8035;51.962;7.162;2023-05-19T15:13:55;5.97;;;2.30;;
15871;SDS011;8035;51.962;7.162;2023-05-19T15:16:21;2.93;;;2.20;;
15871;SDS011;8035;51.962;7.162;2023-05-19T15:18:46;5.13;;;2.40;;
15871;SDS011;8035;51.962;7.162;2023-05-19T15:21:12;5.30;;;2.00;;
15871;SDS011;8035;51.962;7.162;2023-05-19T15:23:37;3.70;;;2.27;;
15871;SDS011;8035;51.962;7.162;2023-05-19T15:26:03;3.70;;;2.07;;
15871;SDS011;8035;51.962;7.162;2023-05-19T15:28:28;4.73;;;2.17;;
15871;SDS011;8035;51.962;7.162;2023-05-19T15:30:54;5.43;;;2.23;;
15871;SDS011;8035;51.962;7.162;2023-05-19T15:33:20;3.50;;;2.20;;
15871;SDS011;8035;51.962;7.162;2023-05-19T15:35:45;3.20;;;2.00;;
15871;SDS011;8035;51.962;7.162;2023-05-19T15:38:15;3.13;;;1.60;;